Time,TemperatureF,DewpointF,PressureIn,WindDirection,WindDirectionDegrees,WindSpeedMPH,WindSpeedGustMPH,Humidity,HourlyPrecipIn,Conditions,Clouds,dailyrainin,SoftwareType,DateUTC
2013-03-28 00:00:00,43.1,28.9,30.19,WNW,297,1.0,1.0,57,0.00,,,0.01,Wunderground v.1.15,2013-03-28 04:00:00,
2013-03-28 00:05:00,43.1,28.9,30.19,WNW,297,1.0,1.0,57,0.00,,,0.00,Wunderground v.1.15,2013-03-28 04:05:00,
2013-03-28 00:10:00,43.0,28.8,30.19,WNW,297,1.0,1.0,57,0.00,,,0.00,Wunderground v.1.15,2013-03-28 04:10:00,
2013-03-28 00:15:00,42.9,28.7,30.19,WNW,297,1.0,1.0,57,0.00,,,0.00,Wunderground v.1.15,2013-03-28 04:15:00,
2013-03-28 00:25:00,42.7,28.5,30.19,WNW,297,1.0,1.0,57,0.00,,,0.00,Wunderground v.1.15,2013-03-28 04:25:00,
2013-03-28 00:35:00,42.4,28.7,30.19,WNW,297,1.0,1.0,58,0.00,,,0.00,Wunderground v.1.15,2013-03-28 04:35:00,
2013-03-28 00:45:00,42.3,28.6,30.19,WNW,297,1.0,1.0,58,0.00,,,0.00,Wunderground v.1.15,2013-03-28 04:45:00,
2013-03-28 00:50:00,42.2,28.5,30.19,WNW,297,2.0,2.0,58,0.00,,,0.00,Wunderground v.1.15,2013-03-28 04:50:00,
2013-03-28 01:00:00,41.9,28.6,30.19,NNW,344,2.0,2.0,59,0.00,,,0.00,Wunderground v.1.15,2013-03-28 05:00:00,
2013-03-28 01:10:00,41.5,28.6,30.19,NNW,344,2.0,2.0,60,0.00,,,0.00,Wunderground v.1.15,2013-03-28 05:10:00,
2013-03-28 01:20:00,40.9,28.1,30.20,NNW,344,1.0,1.0,60,0.00,,,0.00,Wunderground v.1.15,2013-03-28 05:20:00,
2013-03-28 01:30:00,40.7,28.3,30.20,NNW,344,0.0,1.0,61,0.00,,,0.00,Wunderground v.1.15,2013-03-28 05:30:00,
2013-03-28 01:35:00,40.5,28.1,30.20,NNW,344,1.0,1.0,61,0.00,,,0.00,Wunderground v.1.15,2013-03-28 05:35:00,
2013-03-28 01:45:00,40.3,27.9,30.20,NNW,344,1.0,1.0,61,0.00,,,0.00,Wunderground v.1.15,2013-03-28 05:45:00,
2013-03-28 01:50:00,40.2,27.8,30.20,NNW,344,1.0,1.0,61,0.00,,,0.00,Wunderground v.1.15,2013-03-28 05:50:00,
2013-03-28 02:00:00,40.0,28.0,30.20,NNW,344,1.0,1.0,62,0.00,,,0.00,Wunderground v.1.15,2013-03-28 06:00:00,
2013-03-28 02:05:00,39.9,27.9,30.20,NNW,344,0.0,1.0,62,0.00,,,0.00,Wunderground v.1.15,2013-03-28 06:05:00,
2013-03-28 02:15:00,39.5,28.3,30.20,NNW,344,0.0,0.0,64,0.00,,,0.00,Wunderground v.1.15,2013-03-28 06:15:00,
2013-03-28 02:20:00,38.9,28.9,30.20,NNW,344,0.0,0.0,67,0.00,,,0.00,Wunderground v.1.15,2013-03-28 06:20:00,
2013-03-28 02:30:00,39.1,28.7,30.20,NNW,344,1.0,1.0,66,0.00,,,0.00,Wunderground v.1.15,2013-03-28 06:30:00,
2013-03-28 02:35:00,39.0,28.6,30.20,NNW,344,1.0,1.0,66,0.00,,,0.00,Wunderground v.1.15,2013-03-28 06:35:00,
2013-03-28 02:45:00,38.6,28.6,30.20,NNW,344,0.0,0.0,67,0.00,,,0.00,Wunderground v.1.15,2013-03-28 06:45:00,
2013-03-28 02:55:00,38.1,28.8,30.20,NNW,344,0.0,0.0,69,0.00,,,0.00,Wunderground v.1.15,2013-03-28 06:55:00,
2013-03-28 03:00:00,37.7,28.8,30.20,NNW,344,0.0,0.0,70,0.00,,,0.00,Wunderground v.1.15,2013-03-28 07:00:00,
2013-03-28 03:10:00,37.5,28.9,30.20,NNW,344,0.0,0.0,71,0.00,,,0.00,Wunderground v.1.15,2013-03-28 07:10:00,
2013-03-28 03:20:00,37.7,28.8,30.20,NNW,344,0.0,0.0,70,0.00,,,0.00,Wunderground v.1.15,2013-03-28 07:20:00,
2013-03-28 03:25:00,37.7,28.8,30.20,NNW,344,0.0,0.0,70,0.00,,,0.00,Wunderground v.1.15,2013-03-28 07:25:00,
2013-03-28 03:35:00,37.2,29.0,30.20,NNW,344,0.0,0.0,72,0.00,,,0.00,Wunderground v.1.15,2013-03-28 07:35:00,
2013-03-28 03:40:00,36.6,29.1,30.20,NNW,344,0.0,0.0,74,0.00,,,0.00,Wunderground v.1.15,2013-03-28 07:40:00,
2013-03-28 03:50:00,36.4,28.6,30.19,NNW,344,0.0,0.0,73,0.00,,,0.00,Wunderground v.1.15,2013-03-28 07:50:00,
2013-03-28 03:55:00,36.3,28.8,30.19,NNW,344,0.0,0.0,74,0.00,,,0.00,Wunderground v.1.15,2013-03-28 07:55:00,
2013-03-28 04:05:00,36.1,28.6,30.19,NNW,344,1.0,1.0,74,0.00,,,0.00,Wunderground v.1.15,2013-03-28 08:05:00,
2013-03-28 04:15:00,36.3,28.1,30.19,NNW,344,1.0,1.0,72,0.00,,,0.00,Wunderground v.1.15,2013-03-28 08:15:00,
2013-03-28 04:25:00,36.6,27.7,30.19,NNW,344,1.0,1.0,70,0.00,,,0.00,Wunderground v.1.15,2013-03-28 08:25:00,
2013-03-28 04:30:00,36.8,27.6,30.19,NNW,344,1.0,2.0,69,0.00,,,0.00,Wunderground v.1.15,2013-03-28 08:30:00,
2013-03-28 04:40:00,36.8,26.9,30.19,NNW,344,1.0,1.0,67,0.00,,,0.00,Wunderground v.1.15,2013-03-28 08:40:00,
2013-03-28 04:45:00,36.8,26.9,30.19,NNW,344,0.0,1.0,67,0.00,,,0.00,Wunderground v.1.15,2013-03-28 08:45:00,
2013-03-28 04:55:00,36.7,26.8,30.19,NNW,344,1.0,2.0,67,0.00,,,0.00,Wunderground v.1.15,2013-03-28 08:55:00,
2013-03-28 05:00:00,36.6,26.7,30.19,NNW,344,1.0,1.0,67,0.00,,,0.00,Wunderground v.1.15,2013-03-28 09:00:00,
2013-03-28 05:10:00,36.4,26.8,30.19,NNW,344,1.0,1.0,68,0.00,,,0.00,Wunderground v.1.15,2013-03-28 09:10:00,
2013-03-28 05:15:00,36.2,26.6,30.19,NNW,344,1.0,2.0,68,0.00,,,0.00,Wunderground v.1.15,2013-03-28 09:15:00,
2013-03-28 05:25:00,36.2,26.3,30.19,NNW,344,1.0,1.0,67,0.00,,,0.00,Wunderground v.1.15,2013-03-28 09:25:00,
2013-03-28 05:30:00,36.1,26.6,30.19,NNW,344,1.0,1.0,68,0.00,,,0.00,Wunderground v.1.15,2013-03-28 09:30:00,
2013-03-28 05:40:00,36.1,26.9,30.19,NNW,344,0.0,0.0,69,0.00,,,0.00,Wunderground v.1.15,2013-03-28 09:40:00,
2013-03-28 05:45:00,36.0,26.8,30.19,NNW,344,0.0,1.0,69,0.00,,,0.00,Wunderground v.1.15,2013-03-28 09:45:00,
2013-03-28 05:55:00,35.9,27.1,30.20,NNW,344,1.0,2.0,70,0.00,,,0.00,Wunderground v.1.15,2013-03-28 09:55:00,
2013-03-28 06:05:00,35.4,26.9,30.20,NNW,344,0.0,0.0,71,0.00,,,0.00,Wunderground v.1.15,2013-03-28 10:05:00,
2013-03-28 06:10:00,35.3,26.8,30.20,NNW,344,0.0,0.0,71,0.00,,,0.00,Wunderground v.1.15,2013-03-28 10:10:00,
2013-03-28 06:20:00,35.1,26.6,30.20,NNW,344,0.0,0.0,71,0.00,,,0.00,Wunderground v.1.15,2013-03-28 10:20:00,
2013-03-28 06:25:00,35.1,26.6,30.20,NNW,344,0.0,0.0,71,0.00,,,0.00,Wunderground v.1.15,2013-03-28 10:25:00,
2013-03-28 06:35:00,35.1,26.6,30.21,NNW,344,0.0,1.0,71,0.00,,,0.00,Wunderground v.1.15,2013-03-28 10:35:00,
2013-03-28 06:40:00,35.1,26.6,30.21,NNW,344,0.0,0.0,71,0.00,,,0.00,Wunderground v.1.15,2013-03-28 10:40:00,
2013-03-28 06:50:00,35.0,26.5,30.21,NNW,344,0.0,0.0,71,0.00,,,0.00,Wunderground v.1.15,2013-03-28 10:50:00,
2013-03-28 07:00:00,35.0,26.5,30.22,NNW,344,0.0,1.0,71,0.00,,,0.00,Wunderground v.1.15,2013-03-28 11:00:00,
2013-03-28 07:10:00,34.9,26.4,30.22,NNW,344,1.0,1.0,71,0.00,,,0.00,Wunderground v.1.15,2013-03-28 11:10:00,
2013-03-28 07:15:00,34.9,26.4,30.22,NNW,344,1.0,1.0,71,0.00,,,0.00,Wunderground v.1.15,2013-03-28 11:15:00,
2013-03-28 07:25:00,35.0,26.5,30.22,NNW,344,0.0,1.0,71,0.00,,,0.00,Wunderground v.1.15,2013-03-28 11:25:00,
2013-03-28 07:35:00,35.2,26.7,30.23,NNW,344,0.0,1.0,71,0.00,,,0.00,Wunderground v.1.15,2013-03-28 11:35:00,
2013-03-28 07:40:00,35.5,27.0,30.23,NNW,344,0.0,0.0,71,0.00,,,0.00,Wunderground v.1.15,2013-03-28 11:40:00,
2013-03-28 07:50:00,36.0,26.8,30.23,NW,317,1.0,1.0,69,0.00,,,0.00,Wunderground v.1.15,2013-03-28 11:50:00,
2013-03-28 07:55:00,36.3,26.7,30.23,NW,317,2.0,3.0,68,0.00,,,0.00,Wunderground v.1.15,2013-03-28 11:55:00,
2013-03-28 08:05:00,36.7,26.4,30.23,NW,317,2.0,2.0,66,0.00,,,0.00,Wunderground v.1.15,2013-03-28 12:05:00,
2013-03-28 08:10:00,37.0,26.3,30.23,NW,320,2.0,2.0,65,0.00,,,0.00,Wunderground v.1.15,2013-03-28 12:10:00,
2013-03-28 08:20:00,37.7,27.0,30.24,NW,321,3.0,3.0,65,0.00,,,0.00,Wunderground v.1.15,2013-03-28 12:20:00,
2013-03-28 08:25:00,38.2,27.1,30.24,NW,324,3.0,3.0,64,0.00,,,0.00,Wunderground v.1.15,2013-03-28 12:25:00,
2013-03-28 08:35:00,38.7,27.2,30.24,NW,321,4.0,4.0,63,0.00,,,0.00,Wunderground v.1.15,2013-03-28 12:35:00,
2013-03-28 08:40:00,39.2,27.7,30.24,NW,316,3.0,3.0,63,0.00,,,0.00,Wunderground v.1.15,2013-03-28 12:40:00,
2013-03-28 08:50:00,40.3,27.9,30.24,NNW,336,3.0,6.0,61,0.00,,,0.00,Wunderground v.1.15,2013-03-28 12:50:00,
2013-03-28 08:55:00,40.8,28.0,30.24,NNW,338,4.0,6.0,60,0.00,,,0.00,Wunderground v.1.15,2013-03-28 12:55:00,
2013-03-28 09:05:00,41.9,28.2,30.24,NW,317,4.0,4.0,58,0.00,,,0.00,Wunderground v.1.15,2013-03-28 13:05:00,
2013-03-28 09:10:00,42.5,28.3,30.25,NNW,339,4.0,4.0,57,0.00,,,0.00,Wunderground v.1.15,2013-03-28 13:10:00,
2013-03-28 09:20:00,43.3,28.2,30.25,NNW,329,4.0,5.0,55,0.00,,,0.00,Wunderground v.1.15,2013-03-28 13:20:00,
2013-03-28 09:25:00,43.6,27.1,30.24,North,355,5.0,8.0,52,0.00,,,0.00,Wunderground v.1.15,2013-03-28 13:25:00,
2013-03-28 09:35:00,44.9,28.3,30.24,NW,322,6.0,7.0,52,0.00,,,0.00,Wunderground v.1.15,2013-03-28 13:35:00,
2013-03-28 09:40:00,45.2,27.2,30.24,North,5,5.0,8.0,49,0.00,,,0.00,Wunderground v.1.15,2013-03-28 13:40:00,
2013-03-28 09:50:00,45.8,27.7,30.25,NNE,24,6.0,6.0,49,0.00,,,0.00,Wunderground v.1.15,2013-03-28 13:50:00,
2013-03-28 09:55:00,46.1,27.5,30.24,NNE,14,6.0,6.0,48,0.00,,,0.00,Wunderground v.1.15,2013-03-28 13:55:00,
2013-03-28 10:05:00,46.4,27.2,30.24,NNW,338,6.0,6.0,47,0.00,,,0.00,Wunderground v.1.15,2013-03-28 14:05:00,
2013-03-28 10:10:00,46.6,27.9,30.24,NNW,342,6.0,6.0,48,0.00,,,0.00,Wunderground v.1.15,2013-03-28 14:10:00,
2013-03-28 10:20:00,46.8,26.6,30.24,North,360,7.0,7.0,45,0.00,,,0.00,Wunderground v.1.15,2013-03-28 14:20:00,
2013-03-28 10:25:00,47.2,26.9,30.24,NNW,344,6.0,7.0,45,0.00,,,0.00,Wunderground v.1.15,2013-03-28 14:25:00,
2013-03-28 10:35:00,47.7,27.4,30.24,North,355,6.0,8.0,45,0.00,,,0.00,Wunderground v.1.15,2013-03-28 14:35:00,
2013-03-28 10:40:00,48.1,26.6,30.24,NNW,340,6.0,6.0,43,0.00,,,0.00,Wunderground v.1.15,2013-03-28 14:40:00,
2013-03-28 10:50:00,48.2,27.3,30.24,NNW,336,5.0,6.0,44,0.00,,,0.00,Wunderground v.1.15,2013-03-28 14:50:00,
2013-03-28 10:55:00,49.2,28.2,30.24,NW,314,4.0,6.0,44,0.00,,,0.00,Wunderground v.1.15,2013-03-28 14:55:00,
2013-03-28 11:05:00,49.5,26.7,30.24,North,10,5.0,7.0,41,0.00,,,0.00,Wunderground v.1.15,2013-03-28 15:05:00,
2013-03-28 11:10:00,49.0,24.5,30.24,NNE,17,6.0,6.0,38,0.00,,,0.00,Wunderground v.1.15,2013-03-28 15:10:00,
2013-03-28 11:20:00,49.4,23.5,30.24,North,360,5.0,5.0,36,0.00,,,0.00,Wunderground v.1.15,2013-03-28 15:20:00,
2013-03-28 11:30:00,50.0,26.0,30.24,NW,312,5.0,8.0,39,0.00,,,0.00,Wunderground v.1.15,2013-03-28 15:30:00,
2013-03-28 11:40:00,49.8,25.2,30.24,NNW,328,6.0,11.0,38,0.00,,,0.00,Wunderground v.1.15,2013-03-28 15:40:00,
2013-03-28 11:50:00,50.3,25.6,30.23,WNW,290,7.0,10.0,38,0.00,,,0.00,Wunderground v.1.15,2013-03-28 15:50:00,
2013-03-28 11:55:00,49.9,25.3,30.23,NW,317,7.0,10.0,38,0.00,,,0.00,Wunderground v.1.15,2013-03-28 15:55:00,
2013-03-28 12:05:00,50.5,25.2,30.22,NNW,348,6.0,9.0,37,0.00,,,0.00,Wunderground v.1.15,2013-03-28 16:05:00,
2013-03-28 12:10:00,50.0,26.6,30.22,NNW,333,6.0,6.0,40,0.00,,,0.00,Wunderground v.1.15,2013-03-28 16:10:00,
2013-03-28 12:20:00,50.6,25.3,30.22,WNW,290,6.0,9.0,37,0.00,,,0.00,Wunderground v.1.15,2013-03-28 16:20:00,
2013-03-28 12:25:00,50.5,23.8,30.22,NW,311,7.0,9.0,35,0.00,,,0.00,Wunderground v.1.15,2013-03-28 16:25:00,
2013-03-28 12:35:00,51.5,26.7,30.22,NNW,336,5.0,7.0,38,0.00,,,0.00,Wunderground v.1.15,2013-03-28 16:35:00,
2013-03-28 12:40:00,51.7,25.6,30.22,West,273,6.0,6.0,36,0.00,,,0.00,Wunderground v.1.15,2013-03-28 16:40:00,
2013-03-28 12:50:00,51.5,25.4,30.21,WNW,288,8.0,8.0,36,0.00,,,0.00,Wunderground v.1.15,2013-03-28 16:50:00,
2013-03-28 12:55:00,51.8,25.7,30.21,WNW,303,6.0,8.0,36,0.00,,,0.00,Wunderground v.1.15,2013-03-28 16:55:00,
2013-03-28 13:05:00,52.1,24.6,30.21,WNW,282,8.0,10.0,34,0.00,,,0.00,Wunderground v.1.15,2013-03-28 17:05:00,
2013-03-28 13:10:00,52.5,25.6,30.20,NW,321,7.0,10.0,35,0.00,,,0.00,Wunderground v.1.15,2013-03-28 17:10:00,
2013-03-28 13:20:00,52.7,25.1,30.20,WNW,292,9.0,11.0,34,0.00,,,0.00,Wunderground v.1.15,2013-03-28 17:20:00,
2013-03-28 13:25:00,52.2,24.6,30.20,West,259,7.0,11.0,34,0.00,,,0.00,Wunderground v.1.15,2013-03-28 17:25:00,
2013-03-28 13:35:00,52.6,25.7,30.19,WNW,297,7.0,7.0,35,0.00,,,0.00,Wunderground v.1.15,2013-03-28 17:35:00,
2013-03-28 13:45:00,53.3,25.6,30.19,West,266,8.0,10.0,34,0.00,,,0.00,Wunderground v.1.15,2013-03-28 17:45:00,
2013-03-28 13:50:00,53.1,26.1,30.19,NW,321,9.0,9.0,35,0.00,,,0.00,Wunderground v.1.15,2013-03-28 17:50:00,
2013-03-28 14:00:00,53.8,24.6,30.19,NW,322,6.0,7.0,32,0.00,,,0.00,Wunderground v.1.15,2013-03-28 18:00:00,
2013-03-28 14:05:00,54.1,25.6,30.18,WNW,292,6.0,10.0,33,0.00,,,0.00,Wunderground v.1.15,2013-03-28 18:05:00,
2013-03-28 14:15:00,54.4,24.4,30.18,West,271,8.0,8.0,31,0.00,,,0.00,Wunderground v.1.15,2013-03-28 18:15:00,
2013-03-28 14:20:00,54.3,25.0,30.18,WNW,298,9.0,9.0,32,0.00,,,0.00,Wunderground v.1.15,2013-03-28 18:20:00,
2013-03-28 14:30:00,55.0,26.4,30.17,North,5,5.0,5.0,33,0.00,,,0.00,Wunderground v.1.15,2013-03-28 18:30:00,
2013-03-28 14:35:00,55.1,25.7,30.17,North,355,4.0,5.0,32,0.00,,,0.00,Wunderground v.1.15,2013-03-28 18:35:00,
2013-03-28 14:45:00,55.2,24.3,30.17,NW,310,8.0,8.0,30,0.00,,,0.00,Wunderground v.1.15,2013-03-28 18:45:00,
2013-03-28 14:50:00,55.1,25.7,30.17,WNW,302,7.0,7.0,32,0.00,,,0.00,Wunderground v.1.15,2013-03-28 18:50:00,
2013-03-28 15:00:00,55.4,25.2,30.17,NW,306,6.0,6.0,31,0.00,,,0.00,Wunderground v.1.15,2013-03-28 19:00:00,
2013-03-28 15:05:00,55.1,24.2,30.16,West,277,6.0,7.0,30,0.00,,,0.00,Wunderground v.1.15,2013-03-28 19:05:00,
2013-03-28 15:15:00,55.6,25.4,30.16,WNW,284,8.0,8.0,31,0.00,,,0.00,Wunderground v.1.15,2013-03-28 19:15:00,
2013-03-28 15:20:00,56.1,25.8,30.16,NW,310,6.0,6.0,31,0.00,,,0.00,Wunderground v.1.15,2013-03-28 19:20:00,
2013-03-28 15:30:00,55.8,24.8,30.16,WNW,289,7.0,7.0,30,0.00,,,0.00,Wunderground v.1.15,2013-03-28 19:30:00,
2013-03-28 15:35:00,55.9,24.9,30.15,West,268,7.0,7.0,30,0.00,,,0.00,Wunderground v.1.15,2013-03-28 19:35:00,
2013-03-28 15:45:00,56.1,25.8,30.15,WNW,292,7.0,7.0,31,0.00,,,0.00,Wunderground v.1.15,2013-03-28 19:45:00,
2013-03-28 15:50:00,56.7,25.6,30.15,West,277,6.0,13.0,30,0.00,,,0.00,Wunderground v.1.15,2013-03-28 19:50:00,
2013-03-28 16:00:00,56.2,25.1,30.15,NW,319,7.0,8.0,30,0.00,,,0.00,Wunderground v.1.15,2013-03-28 20:00:00,
2013-03-28 16:10:00,56.5,24.6,30.15,WNW,300,6.0,6.0,29,0.00,,,0.00,Wunderground v.1.15,2013-03-28 20:10:00,
2013-03-28 16:20:00,56.5,24.6,30.14,West,273,7.0,13.0,29,0.00,,,0.00,Wunderground v.1.15,2013-03-28 20:20:00,
2013-03-28 16:30:00,56.8,23.1,30.15,WNW,294,8.0,10.0,27,0.00,,,0.00,Wunderground v.1.15,2013-03-28 20:30:00,
2013-03-28 16:40:00,56.8,23.1,30.14,NNW,328,7.0,11.0,27,0.00,,,0.00,Wunderground v.1.15,2013-03-28 20:40:00,
2013-03-28 16:50:00,57.1,25.1,30.14,West,274,6.0,8.0,29,0.00,,,0.00,Wunderground v.1.15,2013-03-28 20:50:00,
2013-03-28 16:55:00,57.1,23.4,30.14,NW,306,7.0,8.0,27,0.00,,,0.00,Wunderground v.1.15,2013-03-28 20:55:00,
2013-03-28 17:05:00,56.6,23.8,30.14,WNW,297,6.0,9.0,28,0.00,,,0.00,Wunderground v.1.15,2013-03-28 21:05:00,
2013-03-28 17:15:00,57.1,25.1,30.14,North,355,6.0,6.0,29,0.00,,,0.00,Wunderground v.1.15,2013-03-28 21:15:00,
2013-03-28 17:20:00,57.3,22.7,30.14,NNW,333,6.0,6.0,26,0.00,,,0.00,Wunderground v.1.15,2013-03-28 21:20:00,
2013-03-28 17:30:00,57.2,24.3,30.14,NNW,348,6.0,6.0,28,0.00,,,0.00,Wunderground v.1.15,2013-03-28 21:30:00,
2013-03-28 17:40:00,57.1,23.4,30.14,NNW,340,6.0,7.0,27,0.00,,,0.00,Wunderground v.1.15,2013-03-28 21:40:00,
2013-03-28 17:50:00,56.6,23.8,30.14,WNW,284,6.0,6.0,28,0.00,,,0.00,Wunderground v.1.15,2013-03-28 21:50:00,
2013-03-28 17:55:00,56.7,24.8,30.14,WNW,293,5.0,6.0,29,0.00,,,0.00,Wunderground v.1.15,2013-03-28 21:55:00,
2013-03-28 18:05:00,57.0,24.2,30.14,WNW,302,5.0,5.0,28,0.00,,,0.00,Wunderground v.1.15,2013-03-28 22:05:00,
2013-03-28 18:10:00,56.9,24.1,30.14,NNW,330,6.0,6.0,28,0.00,,,0.00,Wunderground v.1.15,2013-03-28 22:10:00,
2013-03-28 18:20:00,56.8,24.0,30.15,NW,319,6.0,6.0,28,0.00,,,0.00,Wunderground v.1.15,2013-03-28 22:20:00,
2013-03-28 18:30:00,57.0,25.0,30.15,NW,309,5.0,5.0,29,0.00,,,0.00,Wunderground v.1.15,2013-03-28 22:30:00,
2013-03-28 18:40:00,56.7,24.8,30.15,NW,305,5.0,5.0,29,0.00,,,0.00,Wunderground v.1.15,2013-03-28 22:40:00,
2013-03-28 18:45:00,56.7,24.8,30.15,NW,306,5.0,5.0,29,0.00,,,0.00,Wunderground v.1.15,2013-03-28 22:45:00,
2013-03-28 18:55:00,56.6,25.5,30.15,NNW,328,3.0,5.0,30,0.00,,,0.00,Wunderground v.1.15,2013-03-28 22:55:00,
2013-03-28 19:05:00,56.3,25.2,30.16,NNW,333,3.0,5.0,30,0.00,,,0.00,Wunderground v.1.15,2013-03-28 23:05:00,
2013-03-28 19:15:00,55.8,24.0,30.16,NW,323,4.0,6.0,29,0.00,,,0.00,Wunderground v.1.15,2013-03-28 23:15:00,
2013-03-28 19:25:00,55.2,24.3,30.17,NW,319,4.0,4.0,30,0.00,,,0.00,Wunderground v.1.15,2013-03-28 23:25:00,
2013-03-28 19:30:00,54.9,24.8,30.17,NW,319,3.0,3.0,31,0.00,,,0.00,Wunderground v.1.15,2013-03-28 23:30:00,
2013-03-28 19:40:00,54.4,25.1,30.17,NW,319,2.0,2.0,32,0.00,,,0.00,Wunderground v.1.15,2013-03-28 23:40:00,
2013-03-28 19:50:00,53.9,25.4,30.18,NW,319,2.0,2.0,33,0.00,,,0.00,Wunderground v.1.15,2013-03-28 23:50:00,
2013-03-28 19:55:00,53.6,25.2,30.18,NW,319,2.0,2.0,33,0.00,,,0.00,Wunderground v.1.15,2013-03-28 23:55:00,
2013-03-28 20:05:00,53.0,26.0,30.18,NW,319,1.0,2.0,35,0.00,,,0.00,Wunderground v.1.15,2013-03-29 00:05:00,
2013-03-28 20:10:00,52.7,25.8,30.19,NW,319,1.0,1.0,35,0.00,,,0.00,Wunderground v.1.15,2013-03-29 00:10:00,
2013-03-28 20:20:00,52.3,26.1,30.19,NW,319,2.0,2.0,36,0.00,,,0.00,Wunderground v.1.15,2013-03-29 00:20:00,
2013-03-28 20:30:00,51.5,26.1,30.19,NW,319,0.0,2.0,37,0.00,,,0.00,Wunderground v.1.15,2013-03-29 00:30:00,
2013-03-28 20:40:00,50.9,26.2,30.20,NW,319,0.0,0.0,38,0.00,,,0.00,Wunderground v.1.15,2013-03-29 00:40:00,
2013-03-28 20:45:00,50.8,26.1,30.20,NW,319,0.0,0.0,38,0.00,,,0.00,Wunderground v.1.15,2013-03-29 00:45:00,
2013-03-28 20:55:00,49.8,27.6,30.21,NW,319,0.0,0.0,42,0.00,,,0.00,Wunderground v.1.15,2013-03-29 00:55:00,
2013-03-28 21:00:00,49.2,28.2,30.21,NW,319,0.0,0.0,44,0.00,,,0.00,Wunderground v.1.15,2013-03-29 01:00:00,
2013-03-28 21:10:00,47.6,27.8,30.21,NW,319,0.0,0.0,46,0.00,,,0.00,Wunderground v.1.15,2013-03-29 01:10:00,
2013-03-28 21:15:00,46.8,28.6,30.21,NW,319,0.0,0.0,49,0.00,,,0.00,Wunderground v.1.15,2013-03-29 01:15:00,
2013-03-28 21:25:00,46.2,28.6,30.21,NW,319,0.0,0.0,50,0.00,,,0.00,Wunderground v.1.15,2013-03-29 01:25:00,
2013-03-28 21:30:00,45.7,29.1,30.21,NW,319,0.0,0.0,52,0.00,,,0.00,Wunderground v.1.15,2013-03-29 01:30:00,
2013-03-28 21:40:00,46.2,28.6,30.22,NW,319,0.0,0.0,50,0.00,,,0.00,Wunderground v.1.15,2013-03-29 01:40:00,
2013-03-28 21:50:00,46.2,29.1,30.22,NW,319,0.0,0.0,51,0.00,,,0.00,Wunderground v.1.15,2013-03-29 01:50:00,
2013-03-28 21:55:00,46.0,29.3,30.22,NW,319,0.0,0.0,52,0.00,,,0.00,Wunderground v.1.15,2013-03-29 01:55:00,
2013-03-28 22:05:00,46.2,29.1,30.22,NW,319,0.0,0.0,51,0.00,,,0.00,Wunderground v.1.15,2013-03-29 02:05:00,
2013-03-28 22:10:00,46.1,29.4,30.23,NW,319,0.0,0.0,52,0.00,,,0.00,Wunderground v.1.15,2013-03-29 02:10:00,
2013-03-28 22:20:00,45.8,30.5,30.23,NW,319,0.0,0.0,55,0.00,,,0.00,Wunderground v.1.15,2013-03-29 02:20:00,
2013-03-28 22:30:00,45.5,30.3,30.23,NW,319,0.0,0.0,55,0.00,,,0.00,Wunderground v.1.15,2013-03-29 02:30:00,
2013-03-28 22:35:00,45.4,29.3,30.23,NW,319,0.0,0.0,53,0.00,,,0.00,Wunderground v.1.15,2013-03-29 02:35:00,
2013-03-28 22:45:00,45.1,29.4,30.24,NW,319,0.0,0.0,54,0.00,,,0.00,Wunderground v.1.15,2013-03-29 02:45:00,
2013-03-28 22:55:00,44.8,30.9,30.24,NW,319,0.0,0.0,58,0.00,,,0.00,Wunderground v.1.15,2013-03-29 02:55:00,
2013-03-28 23:00:00,44.5,31.5,30.24,NW,319,0.0,0.0,60,0.00,,,0.00,Wunderground v.1.15,2013-03-29 03:00:00,
2013-03-28 23:10:00,44.0,31.4,30.24,NW,319,0.0,0.0,61,0.00,,,0.00,Wunderground v.1.15,2013-03-29 03:10:00,
2013-03-28 23:20:00,43.8,30.8,30.24,NW,319,0.0,0.0,60,0.00,,,0.00,Wunderground v.1.15,2013-03-29 03:20:00,
2013-03-28 23:30:00,43.4,30.4,30.24,NW,319,0.0,0.0,60,0.00,,,0.00,Wunderground v.1.15,2013-03-29 03:30:00,
2013-03-28 23:40:00,42.8,31.1,30.24,NW,319,0.0,0.0,63,0.00,,,0.00,Wunderground v.1.15,2013-03-29 03:40:00,
2013-03-28 23:45:00,42.4,30.7,30.24,NW,319,0.0,0.0,63,0.00,,,0.00,Wunderground v.1.15,2013-03-29 03:45:00,
2013-03-28 23:55:00,42.0,32.2,30.25,NW,319,0.0,0.0,68,0.00,,,0.00,Wunderground v.1.15,2013-03-29 03:55:00,